Main page
METAR-TAF:

METAR-TAF

Airports :

Chamberlain Municipal Airport

Chamberlain, South Dakota, United States

latitude: 43-46-00N, longitude: 099-19-06W, elevation: 1692 ft

Current weather observation

The report was made 27 minutes ago, at 21:15 UTC
Wind 9 mph from the East/Southeast
Temperature 37°F
Humidity 93%
Pressure 29.81 in. Hg
Visibility: 10 miles
Scattered clouds at a height of 12000 ft

METAR: K9V9 162115Z AUTO 11008KT 10SM SCT120 03/02 A2981 RMK AO2 T00260015

Time: 15:42 (21:42 UTC)


TAF: missing

Weather observations and forecasts of more than 4000 airports (METAR and TAF reports).

The available stations are represented by yellow and red dots on the map.

Hover mouse over dot to see the name of the station.

Then click to see weather observations and forecasts.

To change the map : click on the green buttons with a black cross to zoom in, on the green button with a dash to zoom out, or on the green arrows for adjacent maps.


METAR-TAF: